sensor_id;sensor_type;location;lat;lon;timestamp;pressure;altitude;pressure_sealevel;temperature;humidity
8705;BME280;4389;41.932;25.904;2023-06-22T00:00:34;100705.69;;;20.23;100.00
8705;BME280;4389;41.932;25.904;2023-06-22T00:03:01;100717.53;;;20.28;100.00
8705;BME280;4389;41.932;25.904;2023-06-22T00:05:29;100723.41;;;20.17;99.98
8705;BME280;4389;41.932;25.904;2023-06-22T00:07:56;100722.78;;;20.01;100.00
8705;BME280;4389;41.932;25.904;2023-06-22T00:10:23;100732.06;;;19.98;100.00
8705;BME280;4389;41.932;25.904;2023-06-22T00:12:49;100736.28;;;19.86;100.00
8705;BME280;4389;41.932;25.904;2023-06-22T00:15:16;100734.84;;;19.90;100.00
8705;BME280;4389;41.932;25.904;2023-06-22T00:17:43;100740.44;;;20.24;100.00
8705;BME280;4389;41.932;25.904;2023-06-22T00:20:10;100741.59;;;20.36;100.00
8705;BME280;4389;41.932;25.904;2023-06-22T00:22:41;100735.00;;;20.39;99.96
8705;BME280;4389;41.932;25.904;2023-06-22T00:25:09;100741.22;;;20.39;99.34
8705;BME280;4389;41.932;25.904;2023-06-22T00:27:36;100747.44;;;20.40;99.40
8705;BME280;4389;41.932;25.904;2023-06-22T00:30:03;100744.97;;;20.45;99.10
8705;BME280;4389;41.932;25.904;2023-06-22T00:32:30;100751.06;;;20.53;98.78
8705;BME280;4389;41.932;25.904;2023-06-22T00:34:57;100753.75;;;20.53;98.42
8705;BME280;4389;41.932;25.904;2023-06-22T00:37:24;100742.59;;;20.56;98.06
8705;BME280;4389;41.932;25.904;2023-06-22T00:39:52;100748.63;;;20.58;98.00
8705;BME280;4389;41.932;25.904;2023-06-22T00:42:19;100745.94;;;20.58;97.98
8705;BME280;4389;41.932;25.904;2023-06-22T00:44:46;100749.88;;;20.62;97.82
8705;BME280;4389;41.932;25.904;2023-06-22T00:47:14;100749.38;;;20.73;97.36
8705;BME280;4389;41.932;25.904;2023-06-22T00:49:42;100745.66;;;20.74;97.04
8705;BME280;4389;41.932;25.904;2023-06-22T00:52:10;100750.56;;;20.64;97.39
8705;BME280;4389;41.932;25.904;2023-06-22T00:54:40;100747.72;;;20.72;96.82
8705;BME280;4389;41.932;25.904;2023-06-22T00:57:12;100747.59;;;20.59;97.66
8705;BME280;4389;41.932;25.904;2023-06-22T00:59:42;100738.06;;;20.57;97.95
8705;BME280;4389;41.932;25.904;2023-06-22T01:02:09;100744.03;;;20.52;97.97
8705;BME280;4389;41.932;25.904;2023-06-22T01:04:37;100738.75;;;20.65;97.83
8705;BME280;4389;41.932;25.904;2023-06-22T01:07:10;100741.44;;;20.65;97.30
8705;BME280;4389;41.932;25.904;2023-06-22T01:09:49;100730.84;;;20.57;97.56
8705;BME280;4389;41.932;25.904;2023-06-22T01:12:19;100729.53;;;20.53;97.91
8705;BME280;4389;41.932;25.904;2023-06-22T01:14:50;100728.50;;;20.54;97.91
8705;BME280;4389;41.932;25.904;2023-06-22T01:17:20;100727.13;;;20.58;97.42
8705;BME280;4389;41.932;25.904;2023-06-22T01:19:49;100727.69;;;20.54;97.33
8705;BME280;4389;41.932;25.904;2023-06-22T01:22:22;100731.47;;;20.59;97.15
8705;BME280;4389;41.932;25.904;2023-06-22T01:24:57;100722.91;;;20.28;97.35
8705;BME280;4389;41.932;25.904;2023-06-22T01:27:44;100740.63;;;19.87;99.89
8705;BME280;4389;41.932;25.904;2023-06-22T01:30:16;100732.53;;;19.66;100.00
8705;BME280;4389;41.932;25.904;2023-06-22T01:32:44;100740.69;;;19.58;100.00
8705;BME280;4389;41.932;25.904;2023-06-22T01:35:12;100738.19;;;19.57;100.00
8705;BME280;4389;41.932;25.904;2023-06-22T01:37:39;100731.22;;;19.62;100.00
8705;BME280;4389;41.932;25.904;2023-06-22T01:40:07;100734.09;;;19.61;100.00
8705;BME280;4389;41.932;25.904;2023-06-22T01:42:35;100734.75;;;19.63;100.00
8705;BME280;4389;41.932;25.904;2023-06-22T01:45:05;100734.47;;;19.72;100.00
8705;BME280;4389;41.932;25.904;2023-06-22T01:47:33;100722.69;;;19.73;100.00
8705;BME280;4389;41.932;25.904;2023-06-22T01:50:01;100722.13;;;19.63;100.00
8705;BME280;4389;41.932;25.904;2023-06-22T01:52:28;100720.75;;;19.67;100.00
8705;BME280;4389;41.932;25.904;2023-06-22T01:54:54;100715.00;;;19.70;100.00
8705;BME280;4389;41.932;25.904;2023-06-22T01:57:23;100722.28;;;19.76;100.00
8705;BME280;4389;41.932;25.904;2023-06-22T01:59:59;100722.41;;;19.68;100.00
8705;BME280;4389;41.932;25.904;2023-06-22T02:02:30;100729.66;;;19.53;100.00
8705;BME280;4389;41.932;25.904;2023-06-22T02:05:03;100724.84;;;19.49;100.00
8705;BME280;4389;41.932;25.904;2023-06-22T02:07:36;100725.03;;;19.47;100.00
8705;BME280;4389;41.932;25.904;2023-06-22T02:10:07;100727.38;;;19.50;100.00
8705;BME280;4389;41.932;25.904;2023-06-22T02:12:35;100724.94;;;19.55;100.00
8705;BME280;4389;41.932;25.904;2023-06-22T02:15:03;100726.59;;;19.56;100.00
8705;BME280;4389;41.932;25.904;2023-06-22T02:17:33;100719.66;;;19.47;100.00
8705;BME280;4389;41.932;25.904;2023-06-22T02:20:02;100716.53;;;19.44;100.00
8705;BME280;4389;41.932;25.904;2023-06-22T02:22:33;100721.91;;;19.29;100.00
8705;BME280;4389;41.932;25.904;2023-06-22T02:25:00;100736.06;;;19.23;100.00
8705;BME280;4389;41.932;25.904;2023-06-22T02:27:27;100735.34;;;19.29;100.00
8705;BME280;4389;41.932;25.904;2023-06-22T02:29:54;100741.44;;;19.23;100.00
8705;BME280;4389;41.932;25.904;2023-06-22T02:32:21;100746.19;;;19.13;100.00
8705;BME280;4389;41.932;25.904;2023-06-22T02:34:48;100749.81;;;19.06;100.00
8705;BME280;4389;41.932;25.904;2023-06-22T02:37:16;100749.09;;;19.12;100.00
8705;BME280;4389;41.932;25.904;2023-06-22T02:39:43;100761.25;;;19.22;100.00
8705;BME280;4389;41.932;25.904;2023-06-22T02:42:10;100766.63;;;19.22;100.00
8705;BME280;4389;41.932;25.904;2023-06-22T02:44:37;100765.31;;;19.33;100.00
8705;BME280;4389;41.932;25.904;2023-06-22T02:47:04;100768.47;;;19.36;100.00
8705;BME280;4389;41.932;25.904;2023-06-22T02:49:31;100781.81;;;19.44;100.00
8705;BME280;4389;41.932;25.904;2023-06-22T02:51:58;100766.97;;;19.48;100.00
8705;BME280;4389;41.932;25.904;2023-06-22T02:54:26;100776.44;;;19.44;100.00
8705;BME280;4389;41.932;25.904;2023-06-22T02:56:53;100782.06;;;19.49;100.00
8705;BME280;4389;41.932;25.904;2023-06-22T02:59:20;100777.72;;;19.48;100.00
8705;BME280;4389;41.932;25.904;2023-06-22T03:01:49;100775.50;;;19.37;100.00
8705;BME280;4389;41.932;25.904;2023-06-22T03:04:17;100769.41;;;19.43;100.00
8705;BME280;4389;41.932;25.904;2023-06-22T03:06:44;100774.56;;;19.59;100.00
8705;BME280;4389;41.932;25.904;2023-06-22T03:09:16;100779.06;;;19.88;100.00
8705;BME280;4389;41.932;25.904;2023-06-22T03:11:44;100779.25;;;20.36;100.00
8705;BME280;4389;41.932;25.904;2023-06-22T03:14:11;100779.56;;;20.69;97.50
8705;BME280;4389;41.932;25.904;2023-06-22T03:16:38;100772.16;;;20.77;96.75
8705;BME280;4389;41.932;25.904;2023-06-22T03:19:06;100768.69;;;20.83;97.07
8705;BME280;4389;41.932;25.904;2023-06-22T03:21:33;100778.34;;;21.26;96.08
8705;BME280;4389;41.932;25.904;2023-06-22T03:24:00;100779.41;;;21.59;93.72
8705;BME280;4389;41.932;25.904;2023-06-22T03:26:27;100773.66;;;22.22;91.12
8705;BME280;4389;41.932;25.904;2023-06-22T03:28:56;100774.81;;;22.67;87.50
8705;BME280;4389;41.932;25.904;2023-06-22T03:31:23;100777.25;;;23.46;84.24
8705;BME280;4389;41.932;25.904;2023-06-22T03:33:50;100784.28;;;23.67;81.42
8705;BME280;4389;41.932;25.904;2023-06-22T03:36:18;100772.91;;;23.45;81.19
8705;BME280;4389;41.932;25.904;2023-06-22T03:38:45;100786.03;;;23.35;81.53
8705;BME280;4389;41.932;25.904;2023-06-22T03:41:12;100784.38;;;23.34;81.38
8705;BME280;4389;41.932;25.904;2023-06-22T03:43:39;100779.31;;;23.57;80.60
8705;BME280;4389;41.932;25.904;2023-06-22T03:46:07;100783.28;;;23.55;80.18
8705;BME280;4389;41.932;25.904;2023-06-22T03:48:34;100782.63;;;23.66;80.45
8705;BME280;4389;41.932;25.904;2023-06-22T03:51:01;100785.78;;;24.13;78.67
8705;BME280;4389;41.932;25.904;2023-06-22T03:53:28;100784.00;;;24.69;75.68
8705;BME280;4389;41.932;25.904;2023-06-22T03:55:55;100790.44;;;24.68;75.21
8705;BME280;4389;41.932;25.904;2023-06-22T03:58:22;100792.09;;;24.38;76.38
8705;BME280;4389;41.932;25.904;2023-06-22T04:00:50;100793.09;;;24.06;78.05
8705;BME280;4389;41.932;25.904;2023-06-22T04:03:19;100794.44;;;24.28;77.72
8705;BME280;4389;41.932;25.904;2023-06-22T04:05:46;100799.03;;;24.65;76.11
8705;BME280;4389;41.932;25.904;2023-06-22T04:08:13;100791.78;;;25.08;73.90
8705;BME280;4389;41.932;25.904;2023-06-22T04:10:40;100806.22;;;25.02;74.47
8705;BME280;4389;41.932;25.904;2023-06-22T04:13:07;100807.28;;;25.01;74.26
8705;BME280;4389;41.932;25.904;2023-06-22T04:15:34;100810.66;;;24.96;74.49
8705;BME280;4389;41.932;25.904;2023-06-22T04:18:01;100800.31;;;24.87;75.53
8705;BME280;4389;41.932;25.904;2023-06-22T04:20:29;100801.75;;;25.14;74.53
8705;BME280;4389;41.932;25.904;2023-06-22T04:22:56;100816.28;;;26.34;71.28
8705;BME280;4389;41.932;25.904;2023-06-22T04:25:23;100809.56;;;26.66;68.65
8705;BME280;4389;41.932;25.904;2023-06-22T04:27:50;100821.72;;;26.63;68.45
8705;BME280;4389;41.932;25.904;2023-06-22T04:30:17;100816.13;;;26.88;67.95
8705;BME280;4389;41.932;25.904;2023-06-22T04:32:44;100831.69;;;26.81;67.77
8705;BME280;4389;41.932;25.904;2023-06-22T04:35:22;100820.22;;;27.31;66.81
8705;BME280;4389;41.932;25.904;2023-06-22T04:37:53;100831.50;;;28.09;63.78
8705;BME280;4389;41.932;25.904;2023-06-22T04:40:21;100832.75;;;28.85;60.47
8705;BME280;4389;41.932;25.904;2023-06-22T04:42:48;100821.97;;;29.07;58.93
8705;BME280;4389;41.932;25.904;2023-06-22T04:45:19;100834.97;;;30.09;55.45
8705;BME280;4389;41.932;25.904;2023-06-22T04:47:47;100836.97;;;30.13;54.98
8705;BME280;4389;41.932;25.904;2023-06-22T04:50:14;100837.44;;;31.06;51.84
8705;BME280;4389;41.932;25.904;2023-06-22T04:52:40;100831.13;;;31.73;49.59
8705;BME280;4389;41.932;25.904;2023-06-22T04:55:09;100828.44;;;31.42;49.33
8705;BME280;4389;41.932;25.904;2023-06-22T04:57:35;100829.03;;;30.59;51.92
8705;BME280;4389;41.932;25.904;2023-06-22T05:00:05;100833.91;;;30.10;53.26
8705;BME280;4389;41.932;25.904;2023-06-22T05:02:38;100827.03;;;28.87;58.12
8705;BME280;4389;41.932;25.904;2023-06-22T05:05:06;100826.75;;;28.16;61.24
8705;BME280;4389;41.932;25.904;2023-06-22T05:07:33;100814.91;;;27.48;65.46
8705;BME280;4389;41.932;25.904;2023-06-22T05:10:00;100830.97;;;27.15;67.19
8705;BME280;4389;41.932;25.904;2023-06-22T05:12:29;100822.91;;;26.38;70.33
8705;BME280;4389;41.932;25.904;2023-06-22T05:14:56;100829.19;;;26.38;70.39
8705;BME280;4389;41.932;25.904;2023-06-22T05:17:23;100822.97;;;26.02;72.25
8705;BME280;4389;41.932;25.904;2023-06-22T05:19:50;100815.41;;;25.86;73.59
8705;BME280;4389;41.932;25.904;2023-06-22T05:22:18;100827.09;;;25.68;75.40
8705;BME280;4389;41.932;25.904;2023-06-22T05:24:45;100815.72;;;25.78;75.39
8705;BME280;4389;41.932;25.904;2023-06-22T05:27:12;100825.66;;;26.20;74.38
8705;BME280;4389;41.932;25.904;2023-06-22T05:29:41;100828.34;;;26.38;73.88
8705;BME280;4389;41.932;25.904;2023-06-22T05:32:08;100822.28;;;26.95;71.88
8705;BME280;4389;41.932;25.904;2023-06-22T05:34:36;100824.34;;;27.11;70.55
8705;BME280;4389;41.932;25.904;2023-06-22T05:37:04;100827.25;;;26.57;72.04
8705;BME280;4389;41.932;25.904;2023-06-22T05:39:31;100823.22;;;26.30;73.89
8705;BME280;4389;41.932;25.904;2023-06-22T05:41:58;100814.78;;;26.49;73.38
8705;BME280;4389;41.932;25.904;2023-06-22T05:44:25;100817.88;;;26.71;71.66
8705;BME280;4389;41.932;25.904;2023-06-22T05:46:53;100814.44;;;26.75;71.17
8705;BME280;4389;41.932;25.904;2023-06-22T05:49:20;100815.94;;;26.60;71.76
8705;BME280;4389;41.932;25.904;2023-06-22T05:51:48;100815.13;;;26.59;70.55
8705;BME280;4389;41.932;25.904;2023-06-22T05:54:15;100816.13;;;26.47;70.92
8705;BME280;4389;41.932;25.904;2023-06-22T05:56:43;100815.47;;;26.63;70.77
8705;BME280;4389;41.932;25.904;2023-06-22T05:59:10;100811.16;;;26.85;71.08
8705;BME280;4389;41.932;25.904;2023-06-22T06:01:37;100815.00;;;26.66;71.60
8705;BME280;4389;41.932;25.904;2023-06-22T06:04:07;100812.91;;;26.68;71.89
8705;BME280;4389;41.932;25.904;2023-06-22T06:06:35;100808.69;;;26.95;70.77
8705;BME280;4389;41.932;25.904;2023-06-22T06:09:02;100803.34;;;27.18;70.71
8705;BME280;4389;41.932;25.904;2023-06-22T06:11:30;100811.00;;;27.21;71.13
8705;BME280;4389;41.932;25.904;2023-06-22T06:13:57;100807.56;;;27.25;70.06
8705;BME280;4389;41.932;25.904;2023-06-22T06:16:24;100811.53;;;27.00;70.46
8705;BME280;4389;41.932;25.904;2023-06-22T06:18:51;100820.47;;;27.41;69.97
8705;BME280;4389;41.932;25.904;2023-06-22T06:21:21;100818.09;;;27.45;69.80
8705;BME280;4389;41.932;25.904;2023-06-22T06:23:48;100800.03;;;27.39;70.83
8705;BME280;4389;41.932;25.904;2023-06-22T06:26:15;100804.84;;;27.48;67.86
8705;BME280;4389;41.932;25.904;2023-06-22T06:28:42;100803.81;;;27.49;68.65
8705;BME280;4389;41.932;25.904;2023-06-22T06:31:09;100791.50;;;27.24;69.05
8705;BME280;4389;41.932;25.904;2023-06-22T06:33:37;100785.22;;;27.12;70.95
8705;BME280;4389;41.932;25.904;2023-06-22T06:36:05;100793.28;;;27.18;69.99
8705;BME280;4389;41.932;25.904;2023-06-22T06:38:35;100782.72;;;27.45;69.11
8705;BME280;4389;41.932;25.904;2023-06-22T06:41:01;100795.50;;;27.56;66.58
8705;BME280;4389;41.932;25.904;2023-06-22T06:43:28;100787.69;;;27.71;68.15
8705;BME280;4389;41.932;25.904;2023-06-22T06:45:55;100791.59;;;27.63;68.22
8705;BME280;4389;41.932;25.904;2023-06-22T06:48:22;100795.50;;;27.79;67.80
8705;BME280;4389;41.932;25.904;2023-06-22T06:50:49;100801.16;;;27.89;66.50
8705;BME280;4389;41.932;25.904;2023-06-22T06:53:16;100798.53;;;27.94;67.28
8705;BME280;4389;41.932;25.904;2023-06-22T06:55:44;100793.78;;;28.01;64.61
8705;BME280;4389;41.932;25.904;2023-06-22T06:58:11;100804.25;;;27.81;64.37
8705;BME280;4389;41.932;25.904;2023-06-22T07:00:39;100810.16;;;27.66;65.69
8705;BME280;4389;41.932;25.904;2023-06-22T07:03:06;100805.63;;;27.95;65.11
8705;BME280;4389;41.932;25.904;2023-06-22T07:05:48;100800.88;;;28.02;62.00
8705;BME280;4389;41.932;25.904;2023-06-22T07:08:26;100801.44;;;27.76;64.39
8705;BME280;4389;41.932;25.904;2023-06-22T07:10:54;100800.94;;;28.18;65.79
8705;BME280;4389;41.932;25.904;2023-06-22T07:13:21;100795.22;;;28.31;65.65
8705;BME280;4389;41.932;25.904;2023-06-22T07:15:48;100797.38;;;28.57;63.66
8705;BME280;4389;41.932;25.904;2023-06-22T07:18:15;100795.47;;;28.58;61.74
8705;BME280;4389;41.932;25.904;2023-06-22T07:20:41;100792.34;;;28.49;61.12
8705;BME280;4389;41.932;25.904;2023-06-22T07:23:08;100791.88;;;29.02;60.19
8705;BME280;4389;41.932;25.904;2023-06-22T07:25:35;100801.66;;;29.31;58.98
8705;BME280;4389;41.932;25.904;2023-06-22T07:28:05;100805.84;;;29.22;58.76
8705;BME280;4389;41.932;25.904;2023-06-22T07:30:34;100796.03;;;29.04;58.40
8705;BME280;4389;41.932;25.904;2023-06-22T07:33:01;100800.56;;;29.32;59.58
8705;BME280;4389;41.932;25.904;2023-06-22T07:35:29;100798.97;;;29.36;57.94
8705;BME280;4389;41.932;25.904;2023-06-22T07:37:56;100797.97;;;29.58;56.49
8705;BME280;4389;41.932;25.904;2023-06-22T07:40:23;100805.94;;;29.60;53.58
8705;BME280;4389;41.932;25.904;2023-06-22T07:42:50;100804.44;;;29.36;54.28
8705;BME280;4389;41.932;25.904;2023-06-22T07:45:19;100798.84;;;29.26;53.79
8705;BME280;4389;41.932;25.904;2023-06-22T07:47:46;100798.97;;;29.19;54.85
8705;BME280;4389;41.932;25.904;2023-06-22T07:50:13;100802.50;;;28.87;55.21
8705;BME280;4389;41.932;25.904;2023-06-22T07:52:40;100791.75;;;29.08;55.09
8705;BME280;4389;41.932;25.904;2023-06-22T07:55:08;100795.69;;;29.01;56.22
8705;BME280;4389;41.932;25.904;2023-06-22T07:57:35;100797.44;;;29.07;54.45
8705;BME280;4389;41.932;25.904;2023-06-22T08:00:04;100798.59;;;29.11;55.59
8705;BME280;4389;41.932;25.904;2023-06-22T08:02:38;100798.84;;;29.09;56.61
8705;BME280;4389;41.932;25.904;2023-06-22T08:05:06;100807.75;;;29.38;55.23
8705;BME280;4389;41.932;25.904;2023-06-22T08:07:33;100811.88;;;29.57;55.49
8705;BME280;4389;41.932;25.904;2023-06-22T08:10:00;100804.25;;;29.59;55.87
8705;BME280;4389;41.932;25.904;2023-06-22T08:12:27;100806.59;;;29.34;57.26
8705;BME280;4389;41.932;25.904;2023-06-22T08:14:54;100807.00;;;29.26;56.79
8705;BME280;4389;41.932;25.904;2023-06-22T08:17:22;100799.09;;;29.62;54.55
8705;BME280;4389;41.932;25.904;2023-06-22T08:19:50;100811.47;;;29.86;55.79
8705;BME280;4389;41.932;25.904;2023-06-22T08:22:17;100807.06;;;30.07;56.93
8705;BME280;4389;41.932;25.904;2023-06-22T08:24:44;100808.88;;;30.18;55.33
8705;BME280;4389;41.932;25.904;2023-06-22T08:27:11;100804.69;;;30.32;53.12
8705;BME280;4389;41.932;25.904;2023-06-22T08:29:39;100794.38;;;30.65;53.78
8705;BME280;4389;41.932;25.904;2023-06-22T08:32:08;100799.16;;;30.79;52.72
8705;BME280;4389;41.932;25.904;2023-06-22T08:34:36;100791.00;;;30.84;53.37
8705;BME280;4389;41.932;25.904;2023-06-22T08:37:07;100801.47;;;30.92;53.25
8705;BME280;4389;41.932;25.904;2023-06-22T08:39:34;100798.03;;;30.75;53.58
8705;BME280;4389;41.932;25.904;2023-06-22T08:42:00;100788.44;;;30.73;53.65
8705;BME280;4389;41.932;25.904;2023-06-22T08:44:28;100777.66;;;30.61;52.21
8705;BME280;4389;41.932;25.904;2023-06-22T08:46:54;100778.00;;;30.65;50.08
8705;BME280;4389;41.932;25.904;2023-06-22T08:49:21;100777.66;;;30.61;52.70
8705;BME280;4389;41.932;25.904;2023-06-22T08:51:48;100785.72;;;30.46;53.27
8705;BME280;4389;41.932;25.904;2023-06-22T08:54:19;100785.00;;;30.56;53.23
8705;BME280;4389;41.932;25.904;2023-06-22T08:56:45;100781.97;;;30.57;51.68
8705;BME280;4389;41.932;25.904;2023-06-22T08:59:12;100791.66;;;30.43;50.26
8705;BME280;4389;41.932;25.904;2023-06-22T09:01:39;100780.84;;;30.80;48.88
8705;BME280;4389;41.932;25.904;2023-06-22T09:04:06;100779.59;;;30.92;49.47
8705;BME280;4389;41.932;25.904;2023-06-22T09:06:34;100785.06;;;30.92;48.93
8705;BME280;4389;41.932;25.904;2023-06-22T09:09:06;100785.19;;;30.76;48.65
8705;BME280;4389;41.932;25.904;2023-06-22T09:11:34;100772.41;;;30.81;49.60
8705;BME280;4389;41.932;25.904;2023-06-22T09:14:01;100777.16;;;30.96;48.87
8705;BME280;4389;41.932;25.904;2023-06-22T09:16:29;100777.44;;;30.99;49.05
8705;BME280;4389;41.932;25.904;2023-06-22T09:18:56;100766.03;;;31.07;48.43
8705;BME280;4389;41.932;25.904;2023-06-22T09:21:23;100775.03;;;31.39;47.46
8705;BME280;4389;41.932;25.904;2023-06-22T09:23:50;100774.09;;;31.19;47.36
8705;BME280;4389;41.932;25.904;2023-06-22T09:26:17;100769.44;;;31.19;47.14
8705;BME280;4389;41.932;25.904;2023-06-22T09:28:46;100770.78;;;31.17;47.35
8705;BME280;4389;41.932;25.904;2023-06-22T09:31:12;100774.44;;;31.32;47.01
8705;BME280;4389;41.932;25.904;2023-06-22T09:33:41;100779.00;;;31.63;47.72
8705;BME280;4389;41.932;25.904;2023-06-22T09:36:08;100774.06;;;31.60;46.72
8705;BME280;4389;41.932;25.904;2023-06-22T09:38:34;100774.00;;;31.45;47.29
8705;BME280;4389;41.932;25.904;2023-06-22T09:41:02;100773.50;;;31.17;46.48
8705;BME280;4389;41.932;25.904;2023-06-22T09:43:31;100767.25;;;31.16;47.24
8705;BME280;4389;41.932;25.904;2023-06-22T09:46:01;100769.63;;;31.13;47.73
8705;BME280;4389;41.932;25.904;2023-06-22T09:48:28;100761.91;;;31.41;46.56
8705;BME280;4389;41.932;25.904;2023-06-22T09:50:56;100773.56;;;31.68;45.11
8705;BME280;4389;41.932;25.904;2023-06-22T09:53:23;100770.19;;;31.56;46.02
8705;BME280;4389;41.932;25.904;2023-06-22T09:55:50;100777.44;;;31.77;46.43
8705;BME280;4389;41.932;25.904;2023-06-22T09:58:17;100781.63;;;31.43;44.02
8705;BME280;4389;41.932;25.904;2023-06-22T10:00:43;100777.28;;;31.47;42.23
8705;BME280;4389;41.932;25.904;2023-06-22T10:03:12;100767.56;;;31.71;41.95
8705;BME280;4389;41.932;25.904;2023-06-22T10:05:38;100774.00;;;31.45;42.78
8705;BME280;4389;41.932;25.904;2023-06-22T10:08:05;100759.63;;;31.70;42.75
8705;BME280;4389;41.932;25.904;2023-06-22T10:10:33;100762.88;;;32.23;42.69
8705;BME280;4389;41.932;25.904;2023-06-22T10:13:09;100766.47;;;32.44;42.95
8705;BME280;4389;41.932;25.904;2023-06-22T10:15:37;100763.88;;;32.02;44.77
8705;BME280;4389;41.932;25.904;2023-06-22T10:18:04;100755.63;;;31.97;44.00
8705;BME280;4389;41.932;25.904;2023-06-22T10:20:32;100763.88;;;32.02;42.85
8705;BME280;4389;41.932;25.904;2023-06-22T10:22:59;100758.66;;;32.01;42.58
8705;BME280;4389;41.932;25.904;2023-06-22T10:25:26;100747.66;;;31.86;41.25
8705;BME280;4389;41.932;25.904;2023-06-22T10:27:53;100745.81;;;32.21;39.81
8705;BME280;4389;41.932;25.904;2023-06-22T10:30:20;100753.03;;;32.42;41.20
8705;BME280;4389;41.932;25.904;2023-06-22T10:32:47;100744.97;;;32.11;40.17
8705;BME280;4389;41.932;25.904;2023-06-22T10:35:14;100746.44;;;32.38;39.09
8705;BME280;4389;41.932;25.904;2023-06-22T10:37:43;100742.09;;;32.72;37.72
8705;BME280;4389;41.932;25.904;2023-06-22T10:40:12;100741.56;;;32.75;39.98
8705;BME280;4389;41.932;25.904;2023-06-22T10:42:38;100736.59;;;32.57;39.37
8705;BME280;4389;41.932;25.904;2023-06-22T10:45:07;100733.31;;;32.50;38.10
8705;BME280;4389;41.932;25.904;2023-06-22T10:47:34;100721.22;;;32.31;38.11
8705;BME280;4389;41.932;25.904;2023-06-22T10:50:01;100719.59;;;32.45;38.70
8705;BME280;4389;41.932;25.904;2023-06-22T10:52:28;100722.91;;;32.57;37.94
8705;BME280;4389;41.932;25.904;2023-06-22T10:54:57;100716.00;;;32.60;38.28
8705;BME280;4389;41.932;25.904;2023-06-22T10:57:24;100722.34;;;32.90;37.42
8705;BME280;4389;41.932;25.904;2023-06-22T10:59:51;100711.09;;;32.87;38.09
8705;BME280;4389;41.932;25.904;2023-06-22T11:02:18;100710.31;;;32.86;37.48
8705;BME280;4389;41.932;25.904;2023-06-22T11:04:45;100711.91;;;32.67;36.76
8705;BME280;4389;41.932;25.904;2023-06-22T11:07:13;100703.13;;;33.05;37.29
8705;BME280;4389;41.932;25.904;2023-06-22T11:09:40;100697.06;;;33.18;36.87
8705;BME280;4389;41.932;25.904;2023-06-22T11:12:08;100689.97;;;33.07;37.50
8705;BME280;4389;41.932;25.904;2023-06-22T11:14:35;100714.34;;;33.09;36.60
8705;BME280;4389;41.932;25.904;2023-06-22T11:17:02;100706.44;;;32.87;36.14
8705;BME280;4389;41.932;25.904;2023-06-22T11:19:29;100701.78;;;32.78;37.37
8705;BME280;4389;41.932;25.904;2023-06-22T11:21:55;100711.66;;;32.69;36.81
8705;BME280;4389;41.932;25.904;2023-06-22T11:24:22;100700.97;;;32.57;37.16
8705;BME280;4389;41.932;25.904;2023-06-22T11:26:49;100695.19;;;32.44;36.81
8705;BME280;4389;41.932;25.904;2023-06-22T11:29:17;100686.44;;;32.62;37.50
8705;BME280;4389;41.932;25.904;2023-06-22T11:31:44;100693.78;;;33.11;37.83
8705;BME280;4389;41.932;25.904;2023-06-22T11:34:11;100699.78;;;33.23;35.41
8705;BME280;4389;41.932;25.904;2023-06-22T11:36:38;100710.25;;;33.06;34.66
8705;BME280;4389;41.932;25.904;2023-06-22T11:39:05;100696.53;;;33.11;35.36
8705;BME280;4389;41.932;25.904;2023-06-22T11:41:32;100693.19;;;33.39;34.89
8705;BME280;4389;41.932;25.904;2023-06-22T11:43:58;100690.84;;;33.71;33.64
8705;BME280;4389;41.932;25.904;2023-06-22T11:46:28;100696.69;;;33.55;36.18
8705;BME280;4389;41.932;25.904;2023-06-22T11:48:55;100692.84;;;33.56;35.91
8705;BME280;4389;41.932;25.904;2023-06-22T11:51:22;100698.88;;;33.58;35.38
8705;BME280;4389;41.932;25.904;2023-06-22T11:53:48;100704.56;;;33.76;34.85
8705;BME280;4389;41.932;25.904;2023-06-22T11:56:15;100688.41;;;33.60;34.15
8705;BME280;4389;41.932;25.904;2023-06-22T11:58:42;100680.09;;;33.80;35.00
8705;BME280;4389;41.932;25.904;2023-06-22T12:01:09;100701.88;;;34.15;34.81
8705;BME280;4389;41.932;25.904;2023-06-22T12:03:37;100684.59;;;34.14;33.48
8705;BME280;4389;41.932;25.904;2023-06-22T12:06:04;100693.53;;;34.35;33.59
8705;BME280;4389;41.932;25.904;2023-06-22T12:08:31;100689.28;;;34.47;32.97
8705;BME280;4389;41.932;25.904;2023-06-22T12:10:57;100703.59;;;34.06;33.78
8705;BME280;4389;41.932;25.904;2023-06-22T12:13:24;100694.16;;;33.63;33.64
8705;BME280;4389;41.932;25.904;2023-06-22T12:15:51;100682.59;;;33.76;33.63
8705;BME280;4389;41.932;25.904;2023-06-22T12:18:18;100691.22;;;34.08;33.35
8705;BME280;4389;41.932;25.904;2023-06-22T12:20:48;100685.88;;;34.22;34.24
8705;BME280;4389;41.932;25.904;2023-06-22T12:23:15;100678.66;;;33.92;34.84
8705;BME280;4389;41.932;25.904;2023-06-22T12:25:42;100684.13;;;33.97;35.29
8705;BME280;4389;41.932;25.904;2023-06-22T12:28:09;100672.25;;;34.07;34.61
8705;BME280;4389;41.932;25.904;2023-06-22T12:30:35;100681.25;;;33.69;35.82
8705;BME280;4389;41.932;25.904;2023-06-22T12:33:02;100675.97;;;33.82;34.32
8705;BME280;4389;41.932;25.904;2023-06-22T12:35:29;100668.78;;;33.91;34.11
8705;BME280;4389;41.932;25.904;2023-06-22T12:37:57;100668.34;;;34.18;35.16
8705;BME280;4389;41.932;25.904;2023-06-22T12:40:24;100667.38;;;33.99;35.62
8705;BME280;4389;41.932;25.904;2023-06-22T12:42:51;100665.84;;;34.21;34.50
8705;BME280;4389;41.932;25.904;2023-06-22T12:45:18;100666.09;;;33.81;34.66
8705;BME280;4389;41.932;25.904;2023-06-22T12:47:46;100653.56;;;33.55;34.78
8705;BME280;4389;41.932;25.904;2023-06-22T12:50:15;100659.88;;;33.56;34.45
8705;BME280;4389;41.932;25.904;2023-06-22T12:52:42;100650.72;;;33.80;34.15
8705;BME280;4389;41.932;25.904;2023-06-22T12:55:10;100653.28;;;34.05;34.67
8705;BME280;4389;41.932;25.904;2023-06-22T12:57:37;100662.16;;;33.97;35.09
8705;BME280;4389;41.932;25.904;2023-06-22T13:00:05;100653.34;;;34.00;34.46